Saturday, November 18, 2017, 4:38 PM EST
Back to Local

KBTV, Burlington International

Location: South Burlington, VT, United States Lat: 44.467
Local Time: 4:38 PM EST (21:38 GMT) Lon: -73.15
Time Zone: US/Eastern Elev: 334 ft

Show me the last for .
Show Decoded

2017-11-18 15:54 METAR KBTV 182054Z 18011KT 10SM OVC047 05/M06 A2957 RMK AO2 SLP017 60000
                 T00501056 56036 =
2017-11-18 14:54 METAR KBTV 181954Z 17010KT 10SM BKN080 OVC100 04/M07 A2958 RMK AO2 SLP021
                 T00441072 =
2017-11-18 13:54 METAR KBTV 181854Z 16012G19KT 10SM OVC080 04/M08 A2961 RMK AO2 RAB1758E34 PRESFR
                 SLP031 P0000 T00391083 =
2017-11-18 12:54 METAR KBTV 181754Z 17010KT 10SM FEW060 OVC090 03/M09 A2968 RMK AO2 SLP053
                 T00331094 10033 21033 56038 =
2017-11-18 11:54 METAR KBTV 181654Z 17009KT 10SM BKN110 OVC150 02/M11 A2969 RMK AO2 SLP059
                 T00221106 =
2017-11-18 10:54 METAR KBTV 181554Z 17011KT 10SM BKN120 OVC150 01/M10 A2974 RMK AO2 SLP077
                 T00111100 =
2017-11-18 09:54 METAR KBTV 181454Z 18008KT 10SM SCT120 BKN150 01/M09 A2979 RMK AO2 SLP092
                 T00061089 56039 =
2017-11-18 08:54 METAR KBTV 181354Z 18007KT 10SM SCT120 BKN150 M01/M09 A2983 RMK AO2 SLP105
                 T10061089 =
2017-11-18 07:54 METAR KBTV 181254Z 15005KT 10SM SCT120 BKN150 BKN250 M02/M09 A2987 RMK AO2
                 SLP119 T10221094 =
2017-11-18 06:54 METAR KBTV 181154Z 12003KT 10SM OVC110 M03/M09 A2991 RMK AO2 SLP132 T10331089
                 11033 21067 56026 =
2017-11-18 05:54 METAR KBTV 181054Z 20003KT 10SM OVC110 M04/M09 A2992 RMK AO2 SLP137 T10441089 =
2017-11-18 04:54 METAR KBTV 180954Z 09003KT 10SM CLR M06/M09 A2994 RMK AO2 SLP144 T10611089 =
2017-11-18 03:54 METAR KBTV 180854Z 12003KT 10SM CLR M07/M09 A2998 RMK AO2 SLP158 T10671094 58012
                 =
2017-11-18 02:54 METAR KBTV 180754Z 12003KT 10SM CLR M06/M08 A3000 RMK AO2 SLP164 T10611083 =
2017-11-18 01:54 METAR KBTV 180654Z 00000KT 10SM CLR M06/M09 A3001 RMK AO2 SLP168 T10561089 =
2017-11-18 00:54 METAR KBTV 180554Z 00000KT 10SM CLR M05/M09 A3002 RMK AO2 SLP170 T10501094 11033
                 21056 58010 =
2017-11-17 23:54 METAR KBTV 180454Z 10005KT 10SM CLR M06/M09 A3004 RMK AO2 SLP176 "LAST"
                 T10561094 400331056 =
2017-11-17 22:54 METAR KBTV 180354Z 09004KT 10SM CLR M05/M09 A3005 RMK AO2 SLP180 T10501089 =
2017-11-17 21:54 METAR KBTV 180254Z 08005KT 10SM CLR M04/M09 A3005 RMK AO2 SLP180 T10441089 58016
                 =
2017-11-17 20:54 METAR KBTV 180154Z 10005KT 10SM CLR M04/M09 A3008 RMK AO2 SLP189 T10441089 =
2017-11-17 19:54 METAR KBTV 180054Z 10004KT 10SM CLR M04/M09 A3009 RMK AO2 SLP194 T10391089 =
2017-11-17 18:54 METAR KBTV 172354Z 08005KT 10SM CLR M04/M09 A3010 RMK AO2 SLP197 T10391089 10011
                 21039 51013 =
2017-11-17 17:54 METAR KBTV 172254Z 01004KT 10SM CLR M02/M09 A3009 RMK AO2 SLP195 T10221089 =
2017-11-17 16:54 METAR KBTV 172154Z 01004KT 10SM FEW050 FEW150 M02/M08 A3007 RMK AO2 SLP189
                 T10171083 =

Support USWX by starting your Amazon purchase here.